Time;durP1;ratioP1;P1;durP2;ratioP2;P2;SDS_P1;SDS_P2;PMS_P1;PMS_P2;Temp;Humidity;BMP_temperature;BMP_pressure;BME280_temperature;BME280_humidity;BME280_pressure;Samples;Min_cycle;Max_cycle;Signal;HPM_P1;HPM_P2
2021/11/12 00:13:39;;;;;;;206.93;45.63;;;7.80;99.90;;;;;;4956520;28;20050;-77
2021/11/12 00:16:05;;;;;;;211.05;44.97;;;7.80;99.90;;;;;;4961950;28;20070;-77
2021/11/12 00:18:33;;;;;;;233.82;45.25;;;7.80;99.90;;;;;;4959039;28;20031;-76
2021/11/12 00:21:01;;;;;;;237.65;43.92;;;7.80;99.90;;;;;;4962174;28;20485;-77
2021/11/12 00:23:29;;;;;;;233.73;46.30;;;7.80;99.90;;;;;;4946329;28;20129;-77
2021/11/12 00:25:55;;;;;;;235.75;47.70;;;7.80;99.90;;;;;;4963754;28;20035;-77
2021/11/12 00:28:24;;;;;;;210.77;46.00;;;7.80;99.90;;;;;;4961640;28;20042;-77
2021/11/12 00:31:07;;;;;;;192.52;44.58;;;7.80;99.90;;;;;;4951041;28;20029;-77
2021/11/12 00:34:03;;;;;;;274.10;45.67;;;7.80;99.90;;;;;;4964745;28;20067;-77
2021/11/12 00:36:49;;;;;;;262.90;46.00;;;7.80;99.90;;;;;;4966405;28;20042;-76
2021/11/12 00:39:30;;;;;;;258.50;46.35;;;7.80;99.90;;;;;;4963731;28;20053;-76
2021/11/12 00:42:11;;;;;;;;;;;7.80;99.90;;;;;;4953017;28;20070;-76
2021/11/12 00:44:46;;;;;;;296.38;44.67;;;7.80;99.90;;;;;;4965624;28;19910;-77
2021/11/12 00:47:21;;;;;;;233.98;45.58;;;7.80;99.90;;;;;;4961633;28;20027;-76
2021/11/12 00:50:04;;;;;;;209.20;46.70;;;7.80;99.90;;;;;;4956012;28;20130;-76
2021/11/12 00:53:40;;;;;;;226.52;44.72;;;7.80;99.90;;;;;;4961029;28;20022;-76
2021/11/12 00:55:26;;;;;;;216.00;45.83;;;7.80;99.90;;;;;;4965567;28;20051;-76
2021/11/12 00:57:54;;;;;;;245.35;47.25;;;7.80;99.90;;;;;;4965484;28;20225;-76
2021/11/12 01:00:20;;;;;;;209.65;45.03;;;7.80;99.90;;;;;;4966098;28;20045;-76
2021/11/12 01:02:46;;;;;;;197.38;46.88;;;7.80;99.90;;;;;;4966926;28;20029;-76
2021/11/12 01:05:12;;;;;;;200.60;44.45;;;7.80;99.90;;;;;;4952801;28;20034;-77
2021/11/12 01:07:39;;;;;;;211.90;46.05;;;7.80;99.90;;;;;;4964330;28;20603;-76
2021/11/12 01:10:07;;;;;;;196.23;45.20;;;7.90;99.90;;;;;;4967617;28;20450;-77
2021/11/12 01:12:35;;;;;;;260.60;47.53;;;7.80;99.90;;;;;;4969869;28;20118;-76
2021/11/12 01:15:03;;;;;;;218.88;44.95;;;7.80;99.90;;;;;;4965780;28;20038;-77
2021/11/12 01:17:29;;;;;;;192.35;44.88;;;7.80;99.90;;;;;;4966962;28;20106;-76
2021/11/12 01:19:55;;;;;;;249.65;46.10;;;7.80;99.90;;;;;;4965643;28;20037;-76
2021/11/12 01:22:21;;;;;;;288.10;46.88;;;7.80;99.90;;;;;;4967599;28;20477;-77
2021/11/12 01:24:47;;;;;;;226.63;46.60;;;7.80;99.90;;;;;;4966432;28;20531;-76
2021/11/12 01:27:12;;;;;;;238.15;47.40;;;7.80;99.90;;;;;;4948315;28;20122;-76
2021/11/12 01:29:38;;;;;;;204.63;46.47;;;7.80;99.90;;;;;;4969842;28;20062;-76
2021/11/12 01:32:21;;;;;;;208.63;46.08;;;7.80;99.90;;;;;;4962622;28;20082;-77
2021/11/12 01:34:54;;;;;;;256.65;46.60;;;7.80;99.90;;;;;;4962502;28;20373;-77
2021/11/12 01:37:22;;;;;;;214.23;44.95;;;7.80;99.90;;;;;;4963945;28;20050;-76
2021/11/12 01:39:53;;;;;;;241.25;46.85;;;7.80;99.90;;;;;;4967120;28;20515;-76
2021/11/12 01:42:19;;;;;;;;;;;7.70;99.90;;;;;;4969474;28;20134;-76
2021/11/12 01:44:52;;;;;;;205.07;44.45;;;7.80;99.90;;;;;;4972705;28;19910;-76
2021/11/12 01:47:27;;;;;;;264.42;49.20;;;7.80;99.90;;;;;;4963828;28;20444;-76
2021/11/12 01:49:56;;;;;;;314.60;47.58;;;7.70;99.90;;;;;;4965040;28;20094;-77
2021/11/12 01:55:02;;;;;;;193.57;46.95;;;7.70;99.90;;;;;;4967431;28;20049;-76
2021/11/12 01:57:47;;;;;;;360.20;48.33;;;7.70;99.90;;;;;;4968093;28;20054;-76
2021/11/12 02:00:17;;;;;;;338.08;47.42;;;7.70;99.90;;;;;;4943898;28;20484;-76
2021/11/12 02:02:42;;;;;;;344.25;48.72;;;7.70;99.90;;;;;;4964015;28;20034;-76
2021/11/12 02:05:09;;;;;;;338.60;49.83;;;7.70;99.90;;;;;;4965761;28;20324;-76
2021/11/12 02:07:37;;;;;;;262.85;46.30;;;7.70;99.90;;;;;;4963121;28;20094;-76
2021/11/12 02:10:09;;;;;;;241.60;47.25;;;7.70;99.90;;;;;;4962032;28;20125;-76
2021/11/12 02:12:46;;;;;;;217.40;45.03;;;7.70;99.90;;;;;;4950056;28;20038;-76
2021/11/12 02:15:12;;;;;;;275.08;47.53;;;7.70;99.90;;;;;;4960530;28;20038;-76
2021/11/12 02:17:40;;;;;;;252.95;47.13;;;7.70;99.90;;;;;;4962342;28;20027;-76
2021/11/12 02:22:34;;;;;;;297.77;46.33;;;7.70;99.90;;;;;;4972315;28;20462;-76
2021/11/12 02:25:06;;;;;;;245.63;46.13;;;7.60;99.90;;;;;;4945344;28;20039;-76
2021/11/12 02:30:27;;;;;;;326.75;48.47;;;7.70;99.90;;;;;;4918867;28;20035;-76
2021/11/12 02:32:56;;;;;;;271.95;44.15;;;7.70;99.90;;;;;;4950157;28;20034;-76
2021/11/12 02:35:22;;;;;;;353.88;48.85;;;7.60;99.90;;;;;;4953404;28;20027;-76
2021/11/12 02:37:47;;;;;;;295.42;49.38;;;7.70;99.90;;;;;;4950046;28;20171;-76
2021/11/12 02:40:13;;;;;;;364.10;47.88;;;7.70;99.90;;;;;;4964545;28;20066;-76
2021/11/12 02:42:38;;;;;;;370.77;47.88;;;7.70;99.90;;;;;;4961496;28;20059;-77
2021/11/12 02:45:04;;;;;;;346.92;48.55;;;7.70;99.90;;;;;;4964338;28;20118;-76
2021/11/12 02:47:30;;;;;;;354.02;46.75;;;7.70;99.90;;;;;;4966259;28;20397;-76
2021/11/12 02:49:57;;;;;;;208.07;45.10;;;7.60;99.90;;;;;;4955309;28;20034;-76
2021/11/12 02:52:23;;;;;;;287.88;46.40;;;7.70;99.90;;;;;;4965684;28;20257;-76
2021/11/12 02:54:49;;;;;;;289.70;45.05;;;7.60;99.90;;;;;;4963970;28;20023;-76
2021/11/12 02:57:16;;;;;;;238.07;45.97;;;7.60;99.90;;;;;;4965451;28;20034;-76
2021/11/12 02:59:41;;;;;;;314.05;46.95;;;7.60;99.90;;;;;;4950716;28;20029;-76
2021/11/12 03:02:08;;;;;;;254.15;44.80;;;7.60;99.90;;;;;;4963085;28;20023;-76
2021/11/12 03:04:34;;;;;;;266.90;45.58;;;7.60;99.90;;;;;;4964191;28;20023;-76
2021/11/12 03:07:00;;;;;;;275.20;45.33;;;7.60;99.90;;;;;;4946783;28;20073;-76
2021/11/12 03:09:27;;;;;;;376.17;46.92;;;7.60;99.90;;;;;;4960174;28;20046;-76
2021/11/12 03:11:53;;;;;;;227.43;42.90;;;7.60;99.90;;;;;;4965914;28;20026;-76
2021/11/12 03:14:19;;;;;;;225.07;42.90;;;7.60;99.90;;;;;;4963577;28;20038;-76
2021/11/12 03:16:45;;;;;;;188.60;42.65;;;7.60;99.90;;;;;;4951608;28;20050;-76
2021/11/12 03:19:12;;;;;;;174.23;44.72;;;7.60;99.90;;;;;;4961072;28;20504;-76
2021/11/12 03:21:40;;;;;;;209.88;41.92;;;7.60;99.90;;;;;;4963115;28;20668;-76
2021/11/12 03:24:15;;;;;;;211.80;42.92;;;7.60;99.90;;;;;;4967503;28;20391;-76
2021/11/12 03:26:48;;;;;;;192.45;41.38;;;7.50;99.90;;;;;;4945456;28;20072;-76
2021/11/12 03:29:53;;;;;;;169.90;41.78;;;7.50;99.90;;;;;;4955031;28;20034;-76
2021/11/12 03:59:59;;;;;;;182.50;39.50;;;7.50;99.90;;;;;;4885522;29;20021;-76
2021/11/12 04:02:50;;;;;;;184.75;40.05;;;7.50;99.90;;;;;;4888888;29;20036;-76
2021/11/12 04:21:39;;;;;;;229.57;38.60;;;7.50;99.90;;;;;;4960408;28;20027;-76
2021/11/12 04:40:46;;;;;;;197.30;36.50;;;7.60;99.90;;;;;;4963805;28;20571;-76
2021/11/12 05:11:19;;;;;;;301.42;34.20;;;7.50;99.90;;;;;;4959593;28;20041;-76
2021/11/12 05:33:35;;;;;;;170.98;32.22;;;7.50;99.90;;;;;;4958857;28;20069;-77
2021/11/12 05:43:37;;;;;;;207.52;31.98;;;7.40;99.90;;;;;;4962781;28;20207;-77
2021/11/12 05:44:07;;;;;;;190.55;31.38;;;7.40;99.90;;;;;;4959607;28;20023;-77
2021/11/12 05:52:03;;;;;;;219.77;32.20;;;7.40;99.90;;;;;;4957720;28;20499;-77
2021/11/12 05:57:14;;;;;;;171.43;30.65;;;7.40;99.90;;;;;;4955137;28;20103;-77
2021/11/12 05:59:40;;;;;;;201.30;31.80;;;7.40;99.90;;;;;;4943737;28;20050;-75
2021/11/12 06:02:05;;;;;;;146.32;30.48;;;7.30;99.90;;;;;;4959087;28;20393;-77
2021/11/12 06:04:32;;;;;;;149.55;29.17;;;7.40;99.90;;;;;;4937278;28;20297;-77
2021/11/12 06:06:57;;;;;;;187.65;29.15;;;7.30;99.90;;;;;;4944141;28;20161;-77
2021/11/12 06:09:23;;;;;;;198.05;31.23;;;7.30;99.90;;;;;;4956893;28;20134;-77
2021/11/12 06:11:52;;;;;;;172.95;30.73;;;7.30;99.90;;;;;;4963059;28;20082;-77
2021/11/12 06:14:18;;;;;;;166.13;27.55;;;7.30;99.90;;;;;;4961765;28;20030;-77
2021/11/12 06:16:43;;;;;;;157.10;29.65;;;7.30;99.90;;;;;;4950992;28;20117;-77
2021/11/12 06:19:09;;;;;;;136.88;30.63;;;7.30;99.90;;;;;;4959272;28;20126;-75
2021/11/12 06:21:34;;;;;;;240.77;31.45;;;7.30;99.90;;;;;;4954884;28;20031;-75
2021/11/12 06:24:00;;;;;;;148.18;27.60;;;7.30;99.90;;;;;;4954522;28;20042;-75
2021/11/12 06:26:26;;;;;;;116.57;25.80;;;7.20;99.90;;;;;;4957486;28;20027;-75
2021/11/12 06:28:52;;;;;;;121.68;24.60;;;7.20;99.90;;;;;;4957902;28;20057;-75
2021/11/12 06:31:21;;;;;;;106.55;23.35;;;7.10;99.90;;;;;;4963793;28;20055;-75
2021/11/12 06:33:48;;;;;;;95.35;22.45;;;7.10;99.90;;;;;;4958245;28;20039;-75
2021/11/12 06:36:14;;;;;;;151.80;23.02;;;7.10;99.90;;;;;;4940803;28;20496;-75
2021/11/12 06:38:40;;;;;;;196.05;24.40;;;7.10;99.90;;;;;;4945057;28;20214;-75
2021/11/12 06:41:11;;;;;;;135.45;24.23;;;7.10;99.90;;;;;;4955439;28;20081;-75
2021/11/12 06:51:39;;;;;;;152.05;22.88;;;7.10;99.90;;;;;;4960753;28;20058;-75
2021/11/12 06:54:05;;;;;;;127.75;22.92;;;7.10;99.90;;;;;;4944342;28;20511;-75
2021/11/12 06:56:31;;;;;;;152.15;21.33;;;7.20;99.90;;;;;;4943904;28;20427;-75
2021/11/12 06:58:57;;;;;;;127.47;20.23;;;7.10;99.90;;;;;;4948589;28;20042;-75
2021/11/12 07:01:24;;;;;;;129.65;18.40;;;7.10;99.90;;;;;;4938346;28;20229;-75
2021/11/12 07:03:50;;;;;;;105.97;18.85;;;7.00;99.90;;;;;;4953971;28;20054;-75
2021/11/12 07:06:16;;;;;;;132.75;18.75;;;7.00;99.90;;;;;;4942148;28;20031;-75
2021/11/12 07:08:43;;;;;;;94.60;19.08;;;6.90;99.90;;;;;;4963147;28;20030;-76
2021/11/12 07:11:09;;;;;;;103.38;18.42;;;6.90;99.90;;;;;;4960819;28;20042;-75
2021/11/12 07:13:35;;;;;;;112.25;18.42;;;6.90;99.90;;;;;;4964935;28;20030;-76
2021/11/12 07:16:00;;;;;;;115.20;18.38;;;6.90;99.90;;;;;;4939400;28;20484;-75
2021/11/12 07:18:27;;;;;;;104.72;18.45;;;6.90;99.90;;;;;;4961037;28;20082;-75
2021/11/12 07:20:54;;;;;;;127.65;18.55;;;6.90;99.90;;;;;;4964107;28;20518;-75
2021/11/12 07:23:23;;;;;;;99.85;18.00;;;6.90;99.90;;;;;;4945903;28;20031;-75
2021/11/12 07:25:50;;;;;;;111.78;18.80;;;6.90;99.90;;;;;;4961874;28;20602;-75
2021/11/12 07:28:16;;;;;;;124.10;18.13;;;6.90;99.90;;;;;;4956144;28;20118;-75
2021/11/12 07:30:42;;;;;;;106.50;19.15;;;6.90;99.90;;;;;;4937906;28;20074;-76
2021/11/12 07:33:11;;;;;;;86.57;18.73;;;6.90;99.90;;;;;;4945724;28;20027;-75
2021/11/12 07:35:44;;;;;;;81.70;18.65;;;7.00;99.90;;;;;;4962212;28;20068;-76
2021/11/12 07:38:13;;;;;;;98.22;19.48;;;6.90;99.90;;;;;;4958108;28;20034;-76
2021/11/12 07:41:10;;;;;;;87.00;17.95;;;7.00;99.90;;;;;;4959302;28;20439;-74
2021/11/12 07:49:03;;;;;;;76.75;17.63;;;6.90;99.90;;;;;;4957093;28;20031;-75
2021/11/12 07:51:29;;;;;;;;;;;6.90;99.90;;;;;;4958559;28;20031;-75
2021/11/12 07:53:55;;;;;;;74.35;15.38;;;7.00;99.90;;;;;;4932542;28;19922;-76
2021/11/12 07:56:21;;;;;;;72.88;15.63;;;6.90;99.90;;;;;;4957436;28;20046;-76
2021/11/12 07:58:48;;;;;;;66.55;14.85;;;6.90;99.90;;;;;;4962043;28;20074;-76
2021/11/12 08:01:13;;;;;;;71.28;15.50;;;6.90;99.90;;;;;;4943234;28;20396;-76
2021/11/12 08:03:39;;;;;;;57.33;15.18;;;6.90;99.90;;;;;;4962693;28;22366;-76
2021/11/12 08:06:07;;;;;;;58.42;14.68;;;6.90;99.90;;;;;;4971061;28;20406;-76
2021/11/12 08:08:36;;;;;;;56.50;14.90;;;6.80;99.90;;;;;;4960160;28;20031;-75
2021/11/12 08:11:13;;;;;;;56.05;14.27;;;6.80;99.90;;;;;;4956563;28;20022;-76
2021/11/12 08:13:43;;;;;;;51.03;15.35;;;6.80;99.90;;;;;;4961185;28;20027;-76
2021/11/12 08:19:00;;;;;;;43.63;13.73;;;6.90;99.90;;;;;;4960254;28;20174;-76
2021/11/12 08:34:45;;;;;;;32.53;11.90;;;7.10;99.90;;;;;;4953121;28;20149;-75
2021/11/12 08:37:19;;;;;;;31.73;12.38;;;7.10;99.90;;;;;;4944713;28;20116;-75
2021/11/12 08:42:17;;;;;;;37.40;12.27;;;7.20;99.90;;;;;;4955467;28;20395;-75
2021/11/12 08:44:48;;;;;;;33.17;11.40;;;7.20;99.90;;;;;;4940764;28;20094;-75
2021/11/12 08:47:25;;;;;;;27.08;12.07;;;7.20;99.90;;;;;;4966373;28;20034;-75
2021/11/12 08:49:51;;;;;;;24.70;10.70;;;7.30;99.90;;;;;;4946242;28;20050;-74
2021/11/12 08:52:18;;;;;;;27.30;11.90;;;7.20;99.90;;;;;;4957215;28;20027;-76
2021/11/12 08:54:46;;;;;;;24.02;11.25;;;7.30;99.90;;;;;;4953013;28;20100;-76
2021/11/12 08:57:14;;;;;;;29.30;12.63;;;7.30;99.90;;;;;;4916214;28;20072;-77
2021/11/12 08:59:52;;;;;;;29.38;12.82;;;7.30;99.90;;;;;;4964618;28;20027;-76
2021/11/12 09:02:21;;;;;;;26.88;11.35;;;7.50;99.90;;;;;;4957098;28;20067;-76
2021/11/12 09:04:48;;;;;;;25.83;11.43;;;7.50;99.90;;;;;;4948239;28;20054;-77
2021/11/12 09:07:14;;;;;;;22.85;12.70;;;7.50;99.90;;;;;;4946494;28;20041;-75
2021/11/12 09:09:42;;;;;;;23.42;11.43;;;7.60;99.90;;;;;;4945583;28;20121;-75
2021/11/12 09:12:11;;;;;;;20.40;10.68;;;7.60;99.90;;;;;;4950586;28;20097;-76
2021/11/12 09:14:43;;;;;;;22.42;10.68;;;7.60;99.90;;;;;;4948896;28;20345;-75
2021/11/12 09:17:09;;;;;;;23.40;11.38;;;7.70;99.90;;;;;;4959947;28;20452;-75
2021/11/12 09:19:46;;;;;;;20.63;11.25;;;7.70;99.90;;;;;;4944860;28;20070;-76
2021/11/12 09:22:14;;;;;;;20.35;11.10;;;7.70;99.80;;;;;;4962814;28;20091;-76
2021/11/12 09:24:40;;;;;;;20.65;11.55;;;7.80;99.80;;;;;;4935540;28;20508;-76
2021/11/12 09:27:06;;;;;;;20.23;12.10;;;7.80;99.70;;;;;;4942241;28;20027;-74
2021/11/12 09:29:31;;;;;;;19.42;11.52;;;8.00;99.80;;;;;;4962091;28;20079;-76
2021/11/12 09:31:58;;;;;;;19.75;11.70;;;8.00;99.60;;;;;;4964849;28;20449;-77
2021/11/12 09:34:23;;;;;;;17.88;11.05;;;8.10;99.70;;;;;;4957400;28;20083;-75
2021/11/12 09:36:49;;;;;;;20.58;11.45;;;8.10;99.50;;;;;;4961724;28;20580;-76
2021/11/12 09:39:15;;;;;;;21.08;11.60;;;8.10;99.40;;;;;;4958842;28;20389;-78
2021/11/12 09:41:41;;;;;;;17.30;10.18;;;8.20;99.40;;;;;;4942593;28;20113;-76
2021/11/12 09:44:07;;;;;;;18.75;10.05;;;8.20;99.30;;;;;;4958836;28;20101;-75
2021/11/12 09:46:34;;;;;;;17.83;10.68;;;8.30;99.20;;;;;;4955776;28;20102;-76
2021/11/12 09:49:02;;;;;;;21.98;11.98;;;8.30;99.10;;;;;;4937226;28;20030;-77
2021/11/12 09:51:29;;;;;;;17.90;10.60;;;8.40;99.10;;;;;;4964149;28;20500;-77
2021/11/12 09:53:55;;;;;;;19.35;10.77;;;8.30;98.80;;;;;;4951518;28;20053;-76
2021/11/12 09:56:21;;;;;;;18.17;10.85;;;8.30;98.80;;;;;;4965606;28;20039;-76
2021/11/12 09:58:48;;;;;;;18.05;10.57;;;8.40;98.70;;;;;;4954550;28;20058;-76
2021/11/12 10:01:14;;;;;;;18.25;10.10;;;8.40;98.70;;;;;;4958178;28;20041;-76
2021/11/12 10:06:20;;;;;;;17.73;9.75;;;8.40;98.50;;;;;;4992517;23;20058;-80
2021/11/12 10:08:46;;;;;;;18.55;10.32;;;8.40;98.40;;;;;;4976847;28;20026;-78
2021/11/12 10:11:25;;;;;;;17.27;10.68;;;8.50;98.40;;;;;;4987059;28;21121;-79
2021/11/12 10:14:00;;;;;;;18.90;9.65;;;8.40;98.40;;;;;;4978348;28;20045;-79
2021/11/12 10:16:42;;;;;;;15.23;9.65;;;8.50;98.20;;;;;;4974366;28;20098;-75
2021/11/12 10:19:19;;;;;;;17.52;9.98;;;8.50;98.10;;;;;;4978544;28;20082;-78
2021/11/12 10:21:56;;;;;;;18.70;9.55;;;8.50;97.70;;;;;;4955540;28;20282;-79
2021/11/12 10:24:27;;;;;;;15.55;8.80;;;8.60;97.70;;;;;;4938794;28;20038;-79
2021/11/12 10:26:56;;;;;;;16.17;9.50;;;8.60;97.00;;;;;;4973652;28;20070;-79
2021/11/12 10:29:29;;;;;;;16.05;9.40;;;8.60;97.10;;;;;;4959708;28;20057;-79
2021/11/12 10:31:57;;;;;;;16.52;9.52;;;8.60;96.80;;;;;;4959853;28;20050;-79
2021/11/12 10:34:25;;;;;;;17.95;9.98;;;8.60;96.90;;;;;;4960830;28;20535;-79
2021/11/12 10:36:55;;;;;;;15.82;10.38;;;8.70;97.00;;;;;;4973148;28;20461;-79
2021/11/12 10:39:43;;;;;;;18.60;9.90;;;8.70;96.90;;;;;;4970624;28;20105;-78
2021/11/12 10:42:21;;;;;;;18.83;10.32;;;8.80;97.00;;;;;;4972751;28;20492;-78
2021/11/12 10:44:59;;;;;;;17.75;10.80;;;8.80;97.00;;;;;;4983982;28;20035;-78
2021/11/12 10:47:27;;;;;;;21.10;10.63;;;9.00;96.90;;;;;;4971291;28;20494;-78
2021/11/12 10:50:09;;;;;;;16.75;10.50;;;8.90;96.60;;;;;;4973170;28;20050;-78
2021/11/12 10:52:37;;;;;;;21.40;11.30;;;8.90;96.50;;;;;;4976570;28;20026;-77
2021/11/12 10:55:17;;;;;;;18.45;9.52;;;9.00;96.50;;;;;;4977673;28;20074;-79
2021/11/12 10:57:50;;;;;;;16.30;10.15;;;9.00;96.00;;;;;;4971669;28;20031;-79
2021/11/12 11:00:48;;;;;;;17.38;9.52;;;9.00;96.10;;;;;;4960911;28;20034;-79
2021/11/12 11:03:16;;;;;;;15.70;8.68;;;9.00;96.00;;;;;;4972733;28;20695;-79
2021/11/12 11:05:43;;;;;;;14.88;8.48;;;9.10;96.10;;;;;;4956847;28;20030;-79
2021/11/12 11:08:20;;;;;;;15.27;8.27;;;9.00;95.90;;;;;;4956021;28;20031;-80
2021/11/12 11:10:51;;;;;;;14.80;8.50;;;9.00;95.80;;;;;;4984312;28;20081;-79
2021/11/12 11:13:25;;;;;;;15.32;7.97;;;9.00;95.80;;;;;;4964578;28;20492;-79
2021/11/12 11:15:56;;;;;;;15.10;8.00;;;9.00;95.80;;;;;;4962318;28;20066;-79
2021/11/12 11:18:33;;;;;;;14.47;8.27;;;8.90;95.50;;;;;;4979388;28;20054;-77
2021/11/12 11:21:26;;;;;;;16.80;7.97;;;8.90;95.50;;;;;;4976887;28;20280;-79
2021/11/12 11:24:07;;;;;;;15.48;8.07;;;8.90;95.50;;;;;;5001564;28;20044;-79
2021/11/12 11:26:47;;;;;;;15.75;7.85;;;8.90;95.70;;;;;;4992461;28;20062;-79
2021/11/12 11:29:17;;;;;;;15.00;8.13;;;9.00;95.70;;;;;;4994544;28;20431;-79
2021/11/12 11:31:43;;;;;;;13.18;7.60;;;9.00;95.80;;;;;;4981206;28;20044;-79
2021/11/12 11:34:09;;;;;;;12.80;6.88;;;9.00;95.50;;;;;;4996212;28;20026;-78
2021/11/12 11:36:37;;;;;;;12.90;7.43;;;9.00;95.00;;;;;;4999474;28;20415;-78
2021/11/12 11:39:13;;;;;;;13.32;6.80;;;9.10;95.40;;;;;;4979671;28;20022;-79
2021/11/12 11:41:43;;;;;;;12.07;7.18;;;9.00;95.30;;;;;;4988263;28;20058;-79
2021/11/12 11:44:10;;;;;;;13.07;6.53;;;9.00;95.30;;;;;;4962063;28;20427;-78
2021/11/12 11:46:41;;;;;;;12.73;6.70;;;9.00;94.70;;;;;;4992865;28;20057;-78
2021/11/12 11:49:13;;;;;;;13.25;6.55;;;9.00;94.80;;;;;;4992563;28;20415;-79
2021/11/12 11:51:59;;;;;;;11.35;6.38;;;9.10;95.00;;;;;;4999887;28;20093;-79
2021/11/12 11:54:35;;;;;;;16.58;7.15;;;9.10;95.10;;;;;;4991182;28;20124;-78
2021/11/12 11:57:11;;;;;;;15.75;7.07;;;9.00;94.90;;;;;;4998274;28;20099;-79
2021/11/12 11:59:37;;;;;;;15.30;6.93;;;9.00;94.90;;;;;;4994785;28;20042;-79
2021/11/12 12:02:24;;;;;;;12.70;7.15;;;9.00;94.80;;;;;;4992831;28;20026;-79
2021/11/12 12:04:57;;;;;;;15.52;7.82;;;9.10;95.00;;;;;;4991837;28;20042;-79
2021/11/12 12:07:28;;;;;;;16.02;8.48;;;9.10;95.00;;;;;;4999415;28;20045;-79
2021/11/12 12:10:03;;;;;;;;;;;9.20;94.70;;;;;;4982070;28;20069;-79
2021/11/12 12:12:33;;;;;;;15.48;8.32;;;9.20;94.40;;;;;;4981607;28;19914;-79
2021/11/12 12:15:04;;;;;;;17.70;10.25;;;9.30;94.00;;;;;;4996322;28;20022;-79
2021/11/12 12:17:34;;;;;;;16.55;9.43;;;9.40;93.70;;;;;;4996491;28;20042;-80
2021/11/12 12:20:19;;;;;;;18.02;9.15;;;9.50;93.40;;;;;;5003071;28;20019;-79
2021/11/12 13:25:50;;;;;;;3.38;2.17;;;9.20;87.40;;;;;;5009998;28;20573;-81
2021/11/12 13:28:26;;;;;;;3.08;1.90;;;9.10;87.90;;;;;;5008324;28;20383;-80
2021/11/12 13:30:53;;;;;;;4.10;2.15;;;9.10;88.00;;;;;;5005845;28;20038;-81
2021/11/12 13:33:30;;;;;;;3.72;1.77;;;9.00;87.60;;;;;;5004746;28;20038;-79
2021/11/12 13:35:58;;;;;;;2.83;1.83;;;9.00;88.20;;;;;;5009397;28;20058;-79
2021/11/12 13:38:42;;;;;;;3.65;1.75;;;9.10;88.00;;;;;;5001025;28;20021;-78
2021/11/12 13:41:11;;;;;;;2.65;1.67;;;9.00;88.00;;;;;;4998261;28;20129;-80
2021/11/12 13:43:42;;;;;;;4.38;1.80;;;9.00;88.30;;;;;;4993197;28;20026;-79
2021/11/12 13:46:08;;;;;;;4.45;2.13;;;9.00;88.70;;;;;;5012427;28;20467;-80
2021/11/12 13:48:53;;;;;;;3.70;2.00;;;9.00;88.50;;;;;;5008818;28;20029;-80
2021/11/12 13:51:26;;;;;;;4.25;2.22;;;9.00;88.40;;;;;;4983677;28;20030;-80
2021/11/12 13:53:53;;;;;;;3.53;2.13;;;9.00;88.90;;;;;;4997437;28;20057;-80
2021/11/12 13:56:19;;;;;;;3.42;2.10;;;8.90;88.80;;;;;;5005987;28;20034;-80
2021/11/12 13:58:45;;;;;;;3.63;2.40;;;8.90;89.00;;;;;;4979740;28;20026;-80
2021/11/12 14:01:23;;;;;;;3.95;2.03;;;8.80;89.30;;;;;;4999558;28;20030;-80
2021/11/12 14:03:49;;;;;;;3.92;1.98;;;8.80;89.70;;;;;;4979150;28;20026;-80
2021/11/12 14:06:17;;;;;;;4.68;2.13;;;8.80;89.80;;;;;;4982427;28;20030;-80
2021/11/12 14:08:51;;;;;;;3.50;2.20;;;8.80;89.70;;;;;;4978422;28;20034;-81
2021/11/12 14:11:30;;;;;;;4.75;2.50;;;8.80;89.80;;;;;;4996794;28;20038;-80
2021/11/12 14:14:00;;;;;;;3.13;2.03;;;8.80;90.00;;;;;;5000788;28;20207;-79
2021/11/12 14:22:10;;;;;;;4.30;2.20;;;8.80;90.10;;;;;;5001152;28;20441;-79
2021/11/12 14:24:58;;;;;;;4.65;2.47;;;8.80;90.40;;;;;;5004648;28;20403;-78
2021/11/12 14:27:59;;;;;;;3.05;2.13;;;8.80;90.50;;;;;;4990361;28;20026;-79
2021/11/12 14:38:23;;;;;;;4.28;2.30;;;8.70;90.70;;;;;;4989043;28;20028;-76
2021/11/12 14:41:14;;;;;;;4.40;2.13;;;8.60;91.00;;;;;;4994468;28;20454;-81
2021/11/12 14:44:01;;;;;;;4.07;2.45;;;8.60;91.20;;;;;;5004364;28;20391;-79
2021/11/12 14:46:42;;;;;;;4.38;2.75;;;8.50;91.60;;;;;;4987486;28;20566;-79
2021/11/12 14:49:25;;;;;;;4.35;2.85;;;8.50;91.80;;;;;;4985689;28;20085;-79
2021/11/12 14:54:34;;;;;;;5.50;2.92;;;8.30;92.30;;;;;;5003222;28;20205;-81
2021/11/12 14:57:03;;;;;;;6.60;3.65;;;8.30;92.30;;;;;;4992855;28;20073;-80
2021/11/12 14:59:29;;;;;;;6.47;3.47;;;8.20;92.30;;;;;;4987228;28;20022;-78
2021/11/12 15:01:55;;;;;;;7.50;4.50;;;8.10;92.40;;;;;;4979826;28;20058;-78
2021/11/12 15:04:20;;;;;;;5.90;3.78;;;8.10;92.30;;;;;;4976216;28;20425;-79
2021/11/12 15:06:46;;;;;;;7.35;4.45;;;8.00;92.30;;;;;;4975965;28;20030;-79
2021/11/12 15:09:28;;;;;;;6.85;4.70;;;7.90;92.50;;;;;;4993615;28;20142;-79
2021/11/12 15:11:54;;;;;;;6.90;4.68;;;7.90;92.60;;;;;;4987565;28;20050;-80
2021/11/12 15:14:26;;;;;;;8.27;5.13;;;7.80;92.90;;;;;;4973384;28;20121;-80
2021/11/12 15:16:52;;;;;;;8.48;5.05;;;7.70;93.00;;;;;;4994417;28;20391;-80
2021/11/12 15:19:19;;;;;;;9.95;5.60;;;7.60;93.20;;;;;;4992174;28;20022;-80
2021/11/12 15:22:05;;;;;;;12.13;6.28;;;7.50;93.50;;;;;;4985455;28;20022;-78
2021/11/12 15:24:40;;;;;;;10.73;7.18;;;7.50;93.50;;;;;;5000381;28;20026;-79
2021/11/12 15:32:30;;;;;;;9.15;6.40;;;7.30;93.90;;;;;;4941011;28;20036;-79
2021/11/12 15:35:03;;;;;;;9.13;5.97;;;7.20;94.30;;;;;;4996969;28;20506;-77
2021/11/12 15:40:10;;;;;;;8.95;6.35;;;7.10;94.50;;;;;;4993831;28;20053;-80
2021/11/12 15:42:49;;;;;;;10.15;6.60;;;7.10;94.40;;;;;;5001148;28;20034;-80
2021/11/12 15:45:28;;;;;;;11.10;7.15;;;7.00;94.50;;;;;;4987883;28;20026;-81
2021/11/12 15:50:46;;;;;;;16.63;7.72;;;7.00;94.50;;;;;;5001381;28;20450;-79
2021/11/12 15:53:37;;;;;;;9.15;7.10;;;7.00;94.70;;;;;;4957354;28;20049;-79
2021/11/12 15:56:31;;;;;;;11.10;7.38;;;7.00;94.60;;;;;;4997136;28;20080;-79
2021/11/12 15:59:18;;;;;;;11.77;7.75;;;6.90;94.60;;;;;;4971033;28;20065;-80
2021/11/12 16:02:05;;;;;;;10.88;7.57;;;6.90;94.60;;;;;;4999285;28;20106;-80
2021/11/12 16:10:00;;;;;;;9.30;6.88;;;6.80;94.90;;;;;;4979299;28;20099;-74
2021/11/12 16:12:31;;;;;;;11.95;8.20;;;6.80;94.90;;;;;;4963808;28;20033;-74
2021/11/12 16:20:24;;;;;;;12.23;8.50;;;6.70;95.30;;;;;;4962095;28;20409;-74
2021/11/12 16:23:15;;;;;;;12.70;8.48;;;6.60;95.30;;;;;;4945882;28;20026;-74
2021/11/12 16:25:42;;;;;;;15.10;9.38;;;6.60;95.40;;;;;;4964089;28;20054;-74
2021/11/12 16:28:12;;;;;;;13.10;8.88;;;6.60;95.60;;;;;;4946479;28;20094;-74
2021/11/12 16:30:38;;;;;;;15.85;9.38;;;6.50;95.70;;;;;;4962852;28;20102;-74
2021/11/12 16:33:06;;;;;;;12.95;9.27;;;6.40;95.80;;;;;;4968284;28;20102;-74
2021/11/12 16:35:35;;;;;;;12.15;8.75;;;6.40;96.10;;;;;;4964728;28;20065;-74
2021/11/12 16:38:09;;;;;;;12.77;9.32;;;6.30;96.10;;;;;;4959872;28;20042;-74
2021/11/12 16:40:38;;;;;;;14.75;10.50;;;6.30;96.10;;;;;;4948189;28;20045;-74
2021/11/12 16:43:19;;;;;;;15.35;10.05;;;6.30;96.40;;;;;;4960079;28;20015;-74
2021/11/12 17:04:03;;;;;;;17.80;11.07;;;6.40;96.30;;;;;;4960975;28;20045;-75
2021/11/12 17:06:35;;;;;;;15.65;10.75;;;6.40;96.30;;;;;;4947807;28;20051;-74
2021/11/12 17:20:10;;;;;;;17.10;11.02;;;6.60;95.80;;;;;;4958910;28;20077;-76
2021/11/12 17:47:15;;;;;;;24.65;15.10;;;6.20;96.20;;;;;;4960127;28;20027;-74
2021/11/12 17:53:06;;;;;;;25.52;16.60;;;6.10;96.40;;;;;;4938126;28;20058;-75
2021/11/12 18:03:29;;;;;;;33.63;19.65;;;6.00;96.90;;;;;;4966302;28;20151;-76
2021/11/12 18:14:05;;;;;;;41.95;21.40;;;5.80;96.80;;;;;;4962887;28;20042;-77
2021/11/12 21:46:27;;;;;;;67.97;31.65;;;4.90;97.10;;;;;;4942552;28;20045;-74
2021/11/12 21:49:00;;;;;;;62.53;29.75;;;4.80;97.00;;;;;;4957748;28;20143;-74
2021/11/12 21:51:31;;;;;;;71.47;31.77;;;4.90;97.00;;;;;;4964725;28;20030;-75
2021/11/12 21:54:00;;;;;;;62.65;31.00;;;4.90;96.90;;;;;;4933936;28;20463;-75
2021/11/12 21:56:27;;;;;;;62.78;30.42;;;4.90;96.90;;;;;;4961858;28;20086;-74
2021/11/12 21:58:53;;;;;;;64.43;30.05;;;4.90;96.90;;;;;;4961229;28;20023;-76
2021/11/12 22:01:19;;;;;;;67.55;32.25;;;4.90;96.90;;;;;;4957454;28;20033;-75
2021/11/12 22:03:45;;;;;;;71.53;33.97;;;4.80;96.90;;;;;;4942224;28;20027;-74
2021/11/12 22:06:10;;;;;;;63.10;31.45;;;4.90;96.90;;;;;;4969923;23;20518;-65
2021/11/12 22:08:36;;;;;;;60.17;29.90;;;4.80;96.90;;;;;;4946721;28;20116;-65
2021/11/12 22:11:04;;;;;;;69.82;30.92;;;4.90;96.80;;;;;;4949232;28;20191;-65
2021/11/12 22:13:31;;;;;;;65.18;29.55;;;4.80;96.80;;;;;;4940617;28;20026;-65
2021/11/12 22:15:57;;;;;;;59.88;29.65;;;4.80;96.80;;;;;;4937186;28;20031;-65
2021/11/12 22:18:23;;;;;;;69.88;30.10;;;4.90;96.80;;;;;;4937121;28;20110;-65